Atlantic Concert — SKOZ — position and weather

sailwx.info

Track history (hours):
 
Tides and Currents Weather Stations Pressure Air Temp Water Temp Dewpoint Dewpoint Depression Visibility Wind Speed Wind Dir Waves Ship Positions

Atlantic Concert

Last reported at 2016-Aug-31 21:24 UTC. Time now 2017-Aug-24 06:58 UTC.
Position S 27°30' E 041°50'.
Warning: this ship's position is months out of date.

Length 292 m; beam 32.3 m; draft 11.6 m.

Type: Cargo ship. MMSI: 265137000.

Date/timePositionNaut miles runAvg speedWind from/ knotsBaromVisibWave heightAir tempDewpointWater temp
2016-Aug-31 21:24S 27°30' E 041°50'1012.4
2016-Aug-31 20:33S 27°35' E 041°40'1312.7
2016-Aug-31 19:33S 27°40' E 041°27'5412.9
2016-Aug-31 15:22S 28°05' E 040°32'1213.2
2016-Aug-31 14:28S 28°11' E 040°20'1212.8
2016-Aug-31 13:33S 28°16' E 040°09'1312.8
2016-Aug-31 12:33S 28°22' E 039°56'1312.7
2016-Aug-31 11:33S 28°27' E 039°43'1312.6
2016-Aug-31 10:33S 28°33' E 039°30'1413.0
2016-Aug-31 09:28S 28°39' E 039°15'1213.5
2016-Aug-31 08:33S 28°44' E 039°03'1513.0
2016-Aug-31 07:23S 28°51' E 038°47'2613.0
2016-Aug-31 05:22S 29°03' E 038°20'2613.7
2016-Aug-31 03:28S 29°14' E 037°53'1314.1
2016-Aug-31 02:33S 29°19' E 037°40'1413.9
2016-Aug-31 01:33S 29°25' E 037°25'1413.8
2016-Aug-31 00:34S 29°30' E 037°11'1413.6
2016-Aug-30 23:34S 29°36' E 036°57'1413.6
2016-Aug-30 22:34S 29°42' E 036°43'1313.4
2016-Aug-30 21:34S 29°48' E 036°29'1313.4
2016-Aug-30 20:34S 29°54' E 036°15'1313.4
2016-Aug-30 19:33S 30°00' E 036°01'1313.3
2016-Aug-30 18:34S 30°06' E 035°47'1313.3
2016-Aug-30 17:34S 30°12' E 035°34'1313.2
2016-Aug-30 16:34S 30°18' E 035°20'1312.9
2016-Aug-30 15:34S 30°24' E 035°06'1212.4
2016-Aug-30 14:34S 30°29' E 034°54'1212.3
2016-Aug-30 13:33S 30°34' E 034°41'1212.3
2016-Aug-30 12:33S 30°39' E 034°27'1212.1
2016-Aug-30 11:34S 30°44' E 034°15'1212.2
2016-Aug-30 10:33S 30°50' E 034°02'1212.5
2016-Aug-30 09:34S 30°55' E 033°49'1312.7
2016-Aug-30 08:34S 31°01' E 033°36'1312.8
2016-Aug-30 07:34S 31°07' E 033°22'1312.5
2016-Aug-30 06:33S 31°13' E 033°10'1212.3
2016-Aug-30 05:34S 31°18' E 032°57'1212.5
2016-Aug-30 04:34S 31°24' E 032°44'1212.0
2016-Aug-30 03:34S 31°29' E 032°31'1212.0
2016-Aug-30 02:34S 31°34' E 032°19'1212.2
2016-Aug-30 01:34S 31°39' E 032°05'1512.5
2016-Aug-30 00:22S 31°46' E 031°50'1113.2
2016-Aug-29 23:34S 31°50' E 031°38'1312.9
2016-Aug-29 22:34S 31°55' E 031°24'1212.5
2016-Aug-29 21:34S 32°00' E 031°11'1312.6
2016-Aug-29 20:34S 32°06' E 030°58'1312.5
2016-Aug-29 19:33S 32°12' E 030°44'1212.5
2016-Aug-29 18:34S 32°17' E 030°31'1212.3
2016-Aug-29 17:34S 32°22' E 030°18'1312.8
2016-Aug-29 16:34S 32°27' E 030°04'1312.7
2016-Aug-29 15:34S 32°33' E 029°51'1212.3
2016-Aug-29 14:34S 32°38' E 029°37'1111.0
2016-Aug-29 13:34S 32°44' E 029°26'1211.7
2016-Aug-29 12:33S 32°49' E 029°14'  
Track history (hours):
 
Tides and Currents Weather Stations Pressure Air Temp Water Temp Dewpoint Dewpoint Depression Visibility Wind Speed Wind Dir Waves Ship Positions

Atlantic Concert

Last reported at 2016-Aug-31 21:24 UTC. Time now 2017-Aug-24 06:58 UTC.
Position S 27°30' E 041°50'.
Warning: this ship's position is months out of date.

Length 292 m; beam 32.3 m; draft 11.6 m.

Type: Cargo ship. MMSI: 265137000.

Date/timePositionNaut miles runAvg speedWind from/ knotsBaromVisibWave heightAir tempDewpointWater temp
2016-Aug-31 21:24S 27°30' E 041°50'1012.4
2016-Aug-31 20:33S 27°35' E 041°40'1312.7
2016-Aug-31 19:33S 27°40' E 041°27'5412.9
2016-Aug-31 15:22S 28°05' E 040°32'1213.2
2016-Aug-31 14:28S 28°11' E 040°20'1212.8
2016-Aug-31 13:33S 28°16' E 040°09'1312.8
2016-Aug-31 12:33S 28°22' E 039°56'1312.7
2016-Aug-31 11:33S 28°27' E 039°43'1312.6
2016-Aug-31 10:33S 28°33' E 039°30'1413.0
2016-Aug-31 09:28S 28°39' E 039°15'1213.5
2016-Aug-31 08:33S 28°44' E 039°03'1513.0
2016-Aug-31 07:23S 28°51' E 038°47'2613.0
2016-Aug-31 05:22S 29°03' E 038°20'2613.7
2016-Aug-31 03:28S 29°14' E 037°53'1314.1
2016-Aug-31 02:33S 29°19' E 037°40'1413.9
2016-Aug-31 01:33S 29°25' E 037°25'1413.8
2016-Aug-31 00:34S 29°30' E 037°11'1413.6
2016-Aug-30 23:34S 29°36' E 036°57'1413.6
2016-Aug-30 22:34S 29°42' E 036°43'1313.4
2016-Aug-30 21:34S 29°48' E 036°29'1313.4
2016-Aug-30 20:34S 29°54' E 036°15'1313.4
2016-Aug-30 19:33S 30°00' E 036°01'1313.3
2016-Aug-30 18:34S 30°06' E 035°47'1313.3
2016-Aug-30 17:34S 30°12' E 035°34'1313.2
2016-Aug-30 16:34S 30°18' E 035°20'1312.9
2016-Aug-30 15:34S 30°24' E 035°06'1212.4
2016-Aug-30 14:34S 30°29' E 034°54'1212.3
2016-Aug-30 13:33S 30°34' E 034°41'1212.3
2016-Aug-30 12:33S 30°39' E 034°27'1212.1
2016-Aug-30 11:34S 30°44' E 034°15'1212.2
2016-Aug-30 10:33S 30°50' E 034°02'1212.5
2016-Aug-30 09:34S 30°55' E 033°49'1312.7
2016-Aug-30 08:34S 31°01' E 033°36'1312.8
2016-Aug-30 07:34S 31°07' E 033°22'1312.5
2016-Aug-30 06:33S 31°13' E 033°10'1212.3
2016-Aug-30 05:34S 31°18' E 032°57'1212.5
2016-Aug-30 04:34S 31°24' E 032°44'1212.0
2016-Aug-30 03:34S 31°29' E 032°31'1212.0
2016-Aug-30 02:34S 31°34' E 032°19'1212.2
2016-Aug-30 01:34S 31°39' E 032°05'1512.5
2016-Aug-30 00:22S 31°46' E 031°50'1113.2
2016-Aug-29 23:34S 31°50' E 031°38'1312.9
2016-Aug-29 22:34S 31°55' E 031°24'1212.5
2016-Aug-29 21:34S 32°00' E 031°11'1312.6
2016-Aug-29 20:34S 32°06' E 030°58'1312.5
2016-Aug-29 19:33S 32°12' E 030°44'1212.5
2016-Aug-29 18:34S 32°17' E 030°31'1212.3
2016-Aug-29 17:34S 32°22' E 030°18'1312.8
2016-Aug-29 16:34S 32°27' E 030°04'1312.7
2016-Aug-29 15:34S 32°33' E 029°51'1212.3
2016-Aug-29 14:34S 32°38' E 029°37'1111.0
2016-Aug-29 13:34S 32°44' E 029°26'1211.7
2016-Aug-29 12:33S 32°49' E 029°14'  

Dump ship's entire track history